sensor_id;sensor_type;location;lat;lon;timestamp;P1;P2;P0
66336;PMS1003;53139;45.576;5.304;2023-07-29T00:01:58;8.75;8.00;6.75
66336;PMS1003;53139;45.576;5.304;2023-07-29T00:04:59;8.00;8.00;7.00
66336;PMS1003;53139;45.576;5.304;2023-07-29T00:07:59;9.50;8.50;7.25
66336;PMS1003;53139;45.576;5.304;2023-07-29T00:10:59;9.00;8.50;7.00
66336;PMS1003;53139;45.576;5.304;2023-07-29T00:14:00;9.25;8.25;7.00
66336;PMS1003;53139;45.576;5.304;2023-07-29T00:17:01;8.25;8.00;6.50
66336;PMS1003;53139;45.576;5.304;2023-07-29T00:20:02;10.00;9.25;7.00
66336;PMS1003;53139;45.576;5.304;2023-07-29T00:23:03;10.50;8.00;7.00
66336;PMS1003;53139;45.576;5.304;2023-07-29T00:26:03;9.50;9.00;7.00
66336;PMS1003;53139;45.576;5.304;2023-07-29T00:29:03;10.00;9.00;7.75
66336;PMS1003;53139;45.576;5.304;2023-07-29T00:32:04;16.00;14.00;12.50
66336;PMS1003;53139;45.576;5.304;2023-07-29T00:35:05;7.50;7.50;6.25
66336;PMS1003;53139;45.576;5.304;2023-07-29T00:38:06;8.00;7.00;5.75
66336;PMS1003;53139;45.576;5.304;2023-07-29T00:41:06;7.75;6.50;6.25
66336;PMS1003;53139;45.576;5.304;2023-07-29T00:44:07;8.25;7.75;6.25
66336;PMS1003;53139;45.576;5.304;2023-07-29T00:47:07;7.00;7.00;6.25
66336;PMS1003;53139;45.576;5.304;2023-07-29T00:50:12;7.25;7.25;6.50
66336;PMS1003;53139;45.576;5.304;2023-07-29T00:53:14;7.00;6.00;5.50
66336;PMS1003;53139;45.576;5.304;2023-07-29T00:56:15;7.00;6.25;5.00
66336;PMS1003;53139;45.576;5.304;2023-07-29T00:59:15;11.50;8.50;7.50
66336;PMS1003;53139;45.576;5.304;2023-07-29T01:02:16;6.00;6.00;5.25
66336;PMS1003;53139;45.576;5.304;2023-07-29T01:05:16;8.75;8.75;7.00
66336;PMS1003;53139;45.576;5.304;2023-07-29T01:08:27;6.50;5.00;4.00
66336;PMS1003;53139;45.576;5.304;2023-07-29T01:11:55;8.75;7.25;6.00
66336;PMS1003;53139;45.576;5.304;2023-07-29T01:15:11;7.25;7.00;6.00
66336;PMS1003;53139;45.576;5.304;2023-07-29T01:18:21;8.25;6.75;6.00
66336;PMS1003;53139;45.576;5.304;2023-07-29T01:21:23;9.25;7.25;6.00
66336;PMS1003;53139;45.576;5.304;2023-07-29T01:24:27;8.00;8.00;5.75
66336;PMS1003;53139;45.576;5.304;2023-07-29T01:27:28;9.00;7.00;5.50
66336;PMS1003;53139;45.576;5.304;2023-07-29T01:30:33;6.75;6.00;5.25
66336;PMS1003;53139;45.576;5.304;2023-07-29T01:33:40;7.75;6.00;5.00
66336;PMS1003;53139;45.576;5.304;2023-07-29T01:36:45;9.25;7.00;6.25
66336;PMS1003;53139;45.576;5.304;2023-07-29T01:39:49;9.50;8.00;5.25
66336;PMS1003;53139;45.576;5.304;2023-07-29T01:42:51;8.00;8.00;6.00
66336;PMS1003;53139;45.576;5.304;2023-07-29T01:45:51;7.25;7.00;6.00
66336;PMS1003;53139;45.576;5.304;2023-07-29T01:48:52;10.00;8.00;6.00
66336;PMS1003;53139;45.576;5.304;2023-07-29T01:51:52;8.25;6.75;5.50
66336;PMS1003;53139;45.576;5.304;2023-07-29T01:54:53;7.25;7.25;5.25
66336;PMS1003;53139;45.576;5.304;2023-07-29T01:57:53;6.75;6.75;5.75
66336;PMS1003;53139;45.576;5.304;2023-07-29T02:00:53;6.00;6.00;6.00
66336;PMS1003;53139;45.576;5.304;2023-07-29T02:03:54;7.00;7.00;5.00
66336;PMS1003;53139;45.576;5.304;2023-07-29T02:06:57;7.50;7.00;5.00
66336;PMS1003;53139;45.576;5.304;2023-07-29T02:09:57;7.25;6.00;5.00
66336;PMS1003;53139;45.576;5.304;2023-07-29T02:12:58;6.25;6.25;5.25
66336;PMS1003;53139;45.576;5.304;2023-07-29T02:15:58;9.00;7.75;6.75
66336;PMS1003;53139;45.576;5.304;2023-07-29T02:18:59;7.00;6.25;6.00
66336;PMS1003;53139;45.576;5.304;2023-07-29T02:22:00;7.25;6.25;4.75
66336;PMS1003;53139;45.576;5.304;2023-07-29T02:25:00;6.50;6.50;5.75
66336;PMS1003;53139;45.576;5.304;2023-07-29T02:28:01;8.00;8.00;5.00
66336;PMS1003;53139;45.576;5.304;2023-07-29T02:31:14;8.50;7.50;6.00
66336;PMS1003;53139;45.576;5.304;2023-07-29T02:34:16;6.50;6.50;5.00
66336;PMS1003;53139;45.576;5.304;2023-07-29T02:37:17;6.00;5.75;4.75
66336;PMS1003;53139;45.576;5.304;2023-07-29T02:40:17;6.00;6.00;4.50
66336;PMS1003;53139;45.576;5.304;2023-07-29T02:43:17;5.00;5.00;4.50
66336;PMS1003;53139;45.576;5.304;2023-07-29T02:46:18;6.25;6.00;5.00
66336;PMS1003;53139;45.576;5.304;2023-07-29T02:49:18;7.00;5.75;4.25
66336;PMS1003;53139;45.576;5.304;2023-07-29T02:52:19;6.25;6.25;5.00
66336;PMS1003;53139;45.576;5.304;2023-07-29T02:55:19;6.00;6.00;4.75
66336;PMS1003;53139;45.576;5.304;2023-07-29T02:58:19;4.25;4.25;3.00
66336;PMS1003;53139;45.576;5.304;2023-07-29T03:01:20;4.00;4.00;3.00
66336;PMS1003;53139;45.576;5.304;2023-07-29T03:04:20;8.00;5.50;4.00
66336;PMS1003;53139;45.576;5.304;2023-07-29T03:07:20;7.00;6.25;5.25
66336;PMS1003;53139;45.576;5.304;2023-07-29T03:10:21;6.00;5.25;4.75
66336;PMS1003;53139;45.576;5.304;2023-07-29T03:13:22;6.00;6.00;5.00
66336;PMS1003;53139;45.576;5.304;2023-07-29T03:16:22;7.00;5.00;4.00
66336;PMS1003;53139;45.576;5.304;2023-07-29T03:19:23;5.50;5.25;4.50
66336;PMS1003;53139;45.576;5.304;2023-07-29T03:22:24;7.00;4.50;4.00
66336;PMS1003;53139;45.576;5.304;2023-07-29T03:25:24;8.00;4.00;3.00
66336;PMS1003;53139;45.576;5.304;2023-07-29T03:28:28;5.00;4.00;3.25
66336;PMS1003;53139;45.576;5.304;2023-07-29T03:31:30;4.00;4.00;3.00
66336;PMS1003;53139;45.576;5.304;2023-07-29T03:34:30;4.00;4.00;3.00
66336;PMS1003;53139;45.576;5.304;2023-07-29T03:37:31;6.75;4.00;3.25
66336;PMS1003;53139;45.576;5.304;2023-07-29T03:40:34;5.00;5.00;4.00
66336;PMS1003;53139;45.576;5.304;2023-07-29T03:43:34;5.25;3.75;3.00
66336;PMS1003;53139;45.576;5.304;2023-07-29T03:46:35;4.50;4.50;4.00
66336;PMS1003;53139;45.576;5.304;2023-07-29T03:49:35;6.00;5.75;4.00
66336;PMS1003;53139;45.576;5.304;2023-07-29T03:52:35;4.50;4.50;3.50
66336;PMS1003;53139;45.576;5.304;2023-07-29T03:55:36;4.00;4.00;3.00
66336;PMS1003;53139;45.576;5.304;2023-07-29T03:58:36;7.25;5.00;4.00
66336;PMS1003;53139;45.576;5.304;2023-07-29T04:01:36;8.00;4.00;3.00
66336;PMS1003;53139;45.576;5.304;2023-07-29T04:04:37;6.50;4.50;4.00
66336;PMS1003;53139;45.576;5.304;2023-07-29T04:07:37;4.75;3.75;3.00
66336;PMS1003;53139;45.576;5.304;2023-07-29T04:10:38;5.00;4.00;4.00
66336;PMS1003;53139;45.576;5.304;2023-07-29T04:13:38;4.75;4.00;4.00
66336;PMS1003;53139;45.576;5.304;2023-07-29T04:16:38;6.00;4.00;3.75
66336;PMS1003;53139;45.576;5.304;2023-07-29T04:19:39;5.75;4.00;3.00
66336;PMS1003;53139;45.576;5.304;2023-07-29T04:22:39;5.25;3.75;3.25
66336;PMS1003;53139;45.576;5.304;2023-07-29T04:25:39;7.00;5.00;4.00
66336;PMS1003;53139;45.576;5.304;2023-07-29T04:28:40;4.50;3.75;3.00
66336;PMS1003;53139;45.576;5.304;2023-07-29T04:31:42;3.25;2.25;1.25
66336;PMS1003;53139;45.576;5.304;2023-07-29T04:34:42;4.25;3.75;3.00
66336;PMS1003;53139;45.576;5.304;2023-07-29T04:37:43;3.00;3.00;2.50
66336;PMS1003;53139;45.576;5.304;2023-07-29T04:40:44;4.25;3.00;2.75
66336;PMS1003;53139;45.576;5.304;2023-07-29T04:43:44;5.50;5.25;4.00
66336;PMS1003;53139;45.576;5.304;2023-07-29T04:46:44;6.00;5.50;4.25
66336;PMS1003;53139;45.576;5.304;2023-07-29T04:49:45;5.25;4.00;3.25
66336;PMS1003;53139;45.576;5.304;2023-07-29T04:52:45;7.50;5.00;4.00
66336;PMS1003;53139;45.576;5.304;2023-07-29T04:55:46;3.75;3.00;3.00
66336;PMS1003;53139;45.576;5.304;2023-07-29T04:58:46;3.25;3.25;2.25
66336;PMS1003;53139;45.576;5.304;2023-07-29T05:01:47;5.25;4.50;3.75
66336;PMS1003;53139;45.576;5.304;2023-07-29T05:04:47;6.00;3.25;3.00
66336;PMS1003;53139;45.576;5.304;2023-07-29T05:07:47;7.00;5.00;4.00
66336;PMS1003;53139;45.576;5.304;2023-07-29T05:10:51;3.25;3.25;2.25
66336;PMS1003;53139;45.576;5.304;2023-07-29T05:13:52;5.00;5.00;4.00
66336;PMS1003;53139;45.576;5.304;2023-07-29T05:16:53;4.75;4.75;4.00
66336;PMS1003;53139;45.576;5.304;2023-07-29T05:19:53;5.00;5.00;5.00
66336;PMS1003;53139;45.576;5.304;2023-07-29T05:22:54;4.00;4.00;4.00
66336;PMS1003;53139;45.576;5.304;2023-07-29T05:25:54;6.25;4.00;4.00
66336;PMS1003;53139;45.576;5.304;2023-07-29T05:28:54;4.50;3.75;3.00
66336;PMS1003;53139;45.576;5.304;2023-07-29T05:31:55;4.25;4.25;4.00
66336;PMS1003;53139;45.576;5.304;2023-07-29T05:34:57;7.00;5.00;4.00
66336;PMS1003;53139;45.576;5.304;2023-07-29T05:37:57;5.00;5.00;4.00
66336;PMS1003;53139;45.576;5.304;2023-07-29T05:40:57;4.00;3.75;3.00
66336;PMS1003;53139;45.576;5.304;2023-07-29T05:43:58;4.25;4.25;3.50
66336;PMS1003;53139;45.576;5.304;2023-07-29T05:46:58;5.00;4.00;3.25
66336;PMS1003;53139;45.576;5.304;2023-07-29T05:49:59;8.00;4.75;4.00
66336;PMS1003;53139;45.576;5.304;2023-07-29T05:53:02;5.00;5.00;4.75
66336;PMS1003;53139;45.576;5.304;2023-07-29T05:56:02;5.00;4.25;3.00
66336;PMS1003;53139;45.576;5.304;2023-07-29T05:59:02;5.50;4.00;3.00
66336;PMS1003;53139;45.576;5.304;2023-07-29T06:02:03;4.00;4.00;3.00
66336;PMS1003;53139;45.576;5.304;2023-07-29T06:05:06;3.75;3.75;3.25
66336;PMS1003;53139;45.576;5.304;2023-07-29T06:08:07;6.50;4.25;3.25
66336;PMS1003;53139;45.576;5.304;2023-07-29T06:11:08;7.25;5.00;4.25
66336;PMS1003;53139;45.576;5.304;2023-07-29T06:14:08;4.25;3.25;3.00
66336;PMS1003;53139;45.576;5.304;2023-07-29T06:17:09;4.00;4.00;3.00
66336;PMS1003;53139;45.576;5.304;2023-07-29T06:20:11;5.75;3.25;3.00
66336;PMS1003;53139;45.576;5.304;2023-07-29T06:23:11;3.50;3.50;3.00
66336;PMS1003;53139;45.576;5.304;2023-07-29T06:26:12;5.75;3.00;3.00
66336;PMS1003;53139;45.576;5.304;2023-07-29T06:29:13;6.50;6.00;5.25
66336;PMS1003;53139;45.576;5.304;2023-07-29T06:32:14;8.00;5.00;4.00
66336;PMS1003;53139;45.576;5.304;2023-07-29T06:35:15;6.25;4.25;4.00
66336;PMS1003;53139;45.576;5.304;2023-07-29T06:38:19;4.25;4.00;3.00
66336;PMS1003;53139;45.576;5.304;2023-07-29T06:41:21;5.00;5.00;4.25
66336;PMS1003;53139;45.576;5.304;2023-07-29T06:44:22;6.25;4.50;4.00
66336;PMS1003;53139;45.576;5.304;2023-07-29T06:47:23;9.00;6.25;5.25
66336;PMS1003;53139;45.576;5.304;2023-07-29T06:50:23;4.75;4.75;3.75
66336;PMS1003;53139;45.576;5.304;2023-07-29T06:53:24;9.00;9.00;7.00
66336;PMS1003;53139;45.576;5.304;2023-07-29T06:56:25;4.50;4.50;3.50
66336;PMS1003;53139;45.576;5.304;2023-07-29T06:59:25;5.00;4.00;3.00
66336;PMS1003;53139;45.576;5.304;2023-07-29T07:02:26;6.75;6.25;5.00
66336;PMS1003;53139;45.576;5.304;2023-07-29T07:05:27;6.75;6.00;5.25
66336;PMS1003;53139;45.576;5.304;2023-07-29T07:08:34;4.75;4.75;4.00
66336;PMS1003;53139;45.576;5.304;2023-07-29T07:11:34;6.25;5.00;4.00
66336;PMS1003;53139;45.576;5.304;2023-07-29T07:14:35;6.00;5.00;4.25
66336;PMS1003;53139;45.576;5.304;2023-07-29T07:17:36;4.25;3.50;3.25
66336;PMS1003;53139;45.576;5.304;2023-07-29T07:20:37;5.25;5.00;4.00
66336;PMS1003;53139;45.576;5.304;2023-07-29T07:23:38;5.25;5.25;4.25
66336;PMS1003;53139;45.576;5.304;2023-07-29T07:26:39;5.25;5.25;3.75
66336;PMS1003;53139;45.576;5.304;2023-07-29T07:29:40;3.50;3.50;3.25
66336;PMS1003;53139;45.576;5.304;2023-07-29T07:32:40;5.25;4.00;3.25
66336;PMS1003;53139;45.576;5.304;2023-07-29T07:35:41;4.00;4.00;3.50
66336;PMS1003;53139;45.576;5.304;2023-07-29T07:38:42;2.25;2.25;2.00
66336;PMS1003;53139;45.576;5.304;2023-07-29T07:41:43;5.00;5.00;4.00
66336;PMS1003;53139;45.576;5.304;2023-07-29T07:44:44;7.00;5.00;3.75
66336;PMS1003;53139;45.576;5.304;2023-07-29T07:47:44;8.00;5.75;3.75
66336;PMS1003;53139;45.576;5.304;2023-07-29T07:50:45;4.00;4.00;3.50
66336;PMS1003;53139;45.576;5.304;2023-07-29T07:53:45;7.00;4.50;4.00
66336;PMS1003;53139;45.576;5.304;2023-07-29T07:56:46;4.25;3.00;3.00
66336;PMS1003;53139;45.576;5.304;2023-07-29T07:59:46;6.00;6.00;5.00
66336;PMS1003;53139;45.576;5.304;2023-07-29T08:02:46;4.75;4.50;4.00
66336;PMS1003;53139;45.576;5.304;2023-07-29T08:05:47;5.00;5.00;4.00
66336;PMS1003;53139;45.576;5.304;2023-07-29T08:08:48;6.00;4.25;4.00
66336;PMS1003;53139;45.576;5.304;2023-07-29T08:11:48;7.00;5.75;4.00
66336;PMS1003;53139;45.576;5.304;2023-07-29T08:14:48;5.00;3.50;3.00
66336;PMS1003;53139;45.576;5.304;2023-07-29T08:17:49;9.00;5.00;4.00
66336;PMS1003;53139;45.576;5.304;2023-07-29T08:20:53;4.50;4.25;3.75
66336;PMS1003;53139;45.576;5.304;2023-07-29T08:24:03;3.75;3.75;3.75
66336;PMS1003;53139;45.576;5.304;2023-07-29T08:27:04;4.75;4.75;3.00
66336;PMS1003;53139;45.576;5.304;2023-07-29T08:30:05;6.00;4.50;3.50
66336;PMS1003;53139;45.576;5.304;2023-07-29T08:33:06;2.00;1.25;0.25
66336;PMS1003;53139;45.576;5.304;2023-07-29T08:36:06;4.25;4.25;4.00
66336;PMS1003;53139;45.576;5.304;2023-07-29T08:39:06;5.75;5.00;4.50
66336;PMS1003;53139;45.576;5.304;2023-07-29T08:42:07;5.00;5.00;4.00
66336;PMS1003;53139;45.576;5.304;2023-07-29T08:45:10;6.00;5.25;4.00
66336;PMS1003;53139;45.576;5.304;2023-07-29T08:48:11;4.00;4.00;3.25
66336;PMS1003;53139;45.576;5.304;2023-07-29T08:51:16;4.00;4.00;3.25
66336;PMS1003;53139;45.576;5.304;2023-07-29T08:54:18;5.75;5.00;4.25
66336;PMS1003;53139;45.576;5.304;2023-07-29T08:57:19;6.50;4.75;4.00
66336;PMS1003;53139;45.576;5.304;2023-07-29T09:00:20;8.00;5.00;4.00
66336;PMS1003;53139;45.576;5.304;2023-07-29T09:03:21;5.75;5.75;5.50
66336;PMS1003;53139;45.576;5.304;2023-07-29T09:06:22;5.00;5.00;4.00
66336;PMS1003;53139;45.576;5.304;2023-07-29T09:09:25;6.25;6.25;5.00
66336;PMS1003;53139;45.576;5.304;2023-07-29T09:12:26;6.00;5.25;4.50
66336;PMS1003;53139;45.576;5.304;2023-07-29T09:15:27;5.75;4.00;4.00
66336;PMS1003;53139;45.576;5.304;2023-07-29T09:18:28;4.00;4.00;3.75
66336;PMS1003;53139;45.576;5.304;2023-07-29T09:21:29;6.75;5.75;5.00
66336;PMS1003;53139;45.576;5.304;2023-07-29T09:24:29;5.25;5.25;4.00
66336;PMS1003;53139;45.576;5.304;2023-07-29T09:27:32;6.75;6.00;5.00
66336;PMS1003;53139;45.576;5.304;2023-07-29T09:30:38;5.00;5.00;4.00
66336;PMS1003;53139;45.576;5.304;2023-07-29T09:33:39;6.00;6.00;5.00
66336;PMS1003;53139;45.576;5.304;2023-07-29T09:41:27;6.00;6.00;5.00
66336;PMS1003;53139;45.576;5.304;2023-07-29T09:44:36;8.75;6.25;5.00
66336;PMS1003;53139;45.576;5.304;2023-07-29T09:47:40;8.00;6.50;5.00
66336;PMS1003;53139;45.576;5.304;2023-07-29T09:58:38;8.25;7.00;6.00
66336;PMS1003;53139;45.576;5.304;2023-07-29T10:09:46;9.00;8.00;6.00
66336;PMS1003;53139;45.576;5.304;2023-07-29T10:12:50;6.75;6.00;5.00
66336;PMS1003;53139;45.576;5.304;2023-07-29T10:16:02;7.00;7.00;5.75
66336;PMS1003;53139;45.576;5.304;2023-07-29T10:19:04;11.75;7.00;6.00
66336;PMS1003;53139;45.576;5.304;2023-07-29T10:22:04;10.75;6.75;5.75
66336;PMS1003;53139;45.576;5.304;2023-07-29T10:28:10;7.00;6.25;4.75
66336;PMS1003;53139;45.576;5.304;2023-07-29T10:31:12;4.00;4.00;3.00
66336;PMS1003;53139;45.576;5.304;2023-07-29T10:34:17;7.00;4.25;3.75
66336;PMS1003;53139;45.576;5.304;2023-07-29T10:37:18;6.75;5.00;4.25
66336;PMS1003;53139;45.576;5.304;2023-07-29T10:40:19;5.00;4.00;2.00
66336;PMS1003;53139;45.576;5.304;2023-07-29T10:43:26;6.25;4.75;4.00
66336;PMS1003;53139;45.576;5.304;2023-07-29T10:46:31;5.00;4.25;3.25
66336;PMS1003;53139;45.576;5.304;2023-07-29T10:49:35;4.75;3.50;3.00
66336;PMS1003;53139;45.576;5.304;2023-07-29T10:55:36;5.00;5.00;4.00
66336;PMS1003;53139;45.576;5.304;2023-07-29T10:58:37;7.25;6.00;5.00
66336;PMS1003;53139;45.576;5.304;2023-07-29T11:01:41;6.75;6.00;5.00
66336;PMS1003;53139;45.576;5.304;2023-07-29T11:04:46;4.75;4.75;4.25
66336;PMS1003;53139;45.576;5.304;2023-07-29T11:07:51;4.75;4.25;3.25
66336;PMS1003;53139;45.576;5.304;2023-07-29T11:11:08;4.00;3.25;2.75
66336;PMS1003;53139;45.576;5.304;2023-07-29T11:14:12;5.25;5.00;4.50
66336;PMS1003;53139;45.576;5.304;2023-07-29T11:17:15;4.50;4.50;4.00
66336;PMS1003;53139;45.576;5.304;2023-07-29T11:20:17;7.00;7.00;6.00
66336;PMS1003;53139;45.576;5.304;2023-07-29T11:23:18;8.25;6.50;4.50
66336;PMS1003;53139;45.576;5.304;2023-07-29T11:26:19;8.00;6.25;5.00
66336;PMS1003;53139;45.576;5.304;2023-07-29T11:29:20;6.00;5.75;5.00
66336;PMS1003;53139;45.576;5.304;2023-07-29T11:32:20;12.25;11.75;9.25
66336;PMS1003;53139;45.576;5.304;2023-07-29T11:35:21;6.25;6.25;4.25
66336;PMS1003;53139;45.576;5.304;2023-07-29T11:38:22;5.00;5.00;4.50
66336;PMS1003;53139;45.576;5.304;2023-07-29T11:41:23;6.00;6.00;4.25
66336;PMS1003;53139;45.576;5.304;2023-07-29T11:44:32;5.75;5.50;4.75
66336;PMS1003;53139;45.576;5.304;2023-07-29T11:52:22;6.00;6.00;5.00
66336;PMS1003;53139;45.576;5.304;2023-07-29T11:56:11;6.00;6.00;4.25
66336;PMS1003;53139;45.576;5.304;2023-07-29T11:59:13;6.00;5.00;4.75
66336;PMS1003;53139;45.576;5.304;2023-07-29T12:03:01;8.75;6.25;4.75
66336;PMS1003;53139;45.576;5.304;2023-07-29T12:18:38;7.00;7.00;6.00
66336;PMS1003;53139;45.576;5.304;2023-07-29T12:21:40;7.00;6.00;5.50
66336;PMS1003;53139;45.576;5.304;2023-07-29T12:24:41;4.25;4.25;3.00
66336;PMS1003;53139;45.576;5.304;2023-07-29T12:27:43;8.00;6.00;5.25
66336;PMS1003;53139;45.576;5.304;2023-07-29T12:30:43;7.00;7.00;5.00
66336;PMS1003;53139;45.576;5.304;2023-07-29T12:33:43;7.00;6.50;5.00
66336;PMS1003;53139;45.576;5.304;2023-07-29T12:36:45;5.75;5.25;4.00
66336;PMS1003;53139;45.576;5.304;2023-07-29T12:39:50;7.75;7.00;6.00
66336;PMS1003;53139;45.576;5.304;2023-07-29T12:42:51;6.00;6.00;5.25
66336;PMS1003;53139;45.576;5.304;2023-07-29T12:45:52;9.00;7.75;6.00
66336;PMS1003;53139;45.576;5.304;2023-07-29T12:48:52;8.00;6.00;6.00
66336;PMS1003;53139;45.576;5.304;2023-07-29T12:51:53;8.00;7.00;6.25
66336;PMS1003;53139;45.576;5.304;2023-07-29T12:54:54;7.00;7.00;5.00
66336;PMS1003;53139;45.576;5.304;2023-07-29T12:58:19;6.75;5.75;4.75
66336;PMS1003;53139;45.576;5.304;2023-07-29T13:01:20;6.00;6.00;4.75
66336;PMS1003;53139;45.576;5.304;2023-07-29T13:04:36;7.25;5.25;4.00
66336;PMS1003;53139;45.576;5.304;2023-07-29T13:07:52;6.75;3.75;3.00
66336;PMS1003;53139;45.576;5.304;2023-07-29T13:11:08;6.50;5.00;4.25
66336;PMS1003;53139;45.576;5.304;2023-07-29T13:14:20;5.00;4.00;3.75
66336;PMS1003;53139;45.576;5.304;2023-07-29T13:17:43;4.25;4.25;3.25
66336;PMS1003;53139;45.576;5.304;2023-07-29T13:20:46;5.00;4.25;3.75
66336;PMS1003;53139;45.576;5.304;2023-07-29T13:24:07;4.00;3.75;3.00
66336;PMS1003;53139;45.576;5.304;2023-07-29T13:27:17;3.00;2.25;2.00
66336;PMS1003;53139;45.576;5.304;2023-07-29T13:30:17;4.00;4.00;3.50
66336;PMS1003;53139;45.576;5.304;2023-07-29T13:33:18;5.50;5.50;4.50
66336;PMS1003;53139;45.576;5.304;2023-07-29T13:36:18;7.00;5.25;4.25
66336;PMS1003;53139;45.576;5.304;2023-07-29T13:39:19;3.25;3.25;2.00
66336;PMS1003;53139;45.576;5.304;2023-07-29T13:42:23;5.00;4.50;4.00
66336;PMS1003;53139;45.576;5.304;2023-07-29T13:45:30;3.50;3.00;3.00
66336;PMS1003;53139;45.576;5.304;2023-07-29T13:49:09;3.00;3.00;3.00
66336;PMS1003;53139;45.576;5.304;2023-07-29T13:52:39;2.50;2.00;2.00
66336;PMS1003;53139;45.576;5.304;2023-07-29T13:56:06;2.00;2.00;1.25
66336;PMS1003;53139;45.576;5.304;2023-07-29T13:59:43;2.00;1.00;1.00
66336;PMS1003;53139;45.576;5.304;2023-07-29T14:02:59;1.00;1.00;1.00
66336;PMS1003;53139;45.576;5.304;2023-07-29T14:06:06;2.00;2.00;1.00
66336;PMS1003;53139;45.576;5.304;2023-07-29T14:09:06;1.00;1.00;1.00
66336;PMS1003;53139;45.576;5.304;2023-07-29T14:12:07;1.00;1.00;0.75
66336;PMS1003;53139;45.576;5.304;2023-07-29T14:15:07;1.75;1.75;0.75
66336;PMS1003;53139;45.576;5.304;2023-07-29T14:18:08;2.00;0.75;0.75
66336;PMS1003;53139;45.576;5.304;2023-07-29T14:21:15;1.25;0.75;0.75
66336;PMS1003;53139;45.576;5.304;2023-07-29T14:24:21;1.00;1.00;0.75
66336;PMS1003;53139;45.576;5.304;2023-07-29T14:27:28;0.75;0.75;0.75
66336;PMS1003;53139;45.576;5.304;2023-07-29T14:30:50;1.75;1.75;1.25
66336;PMS1003;53139;45.576;5.304;2023-07-29T14:33:57;1.75;1.00;1.00
66336;PMS1003;53139;45.576;5.304;2023-07-29T14:36:58;0.75;0.00;0.00
66336;PMS1003;53139;45.576;5.304;2023-07-29T14:39:59;1.00;1.00;1.00
66336;PMS1003;53139;45.576;5.304;2023-07-29T14:43:01;0.75;0.75;0.75
66336;PMS1003;53139;45.576;5.304;2023-07-29T14:46:01;1.25;1.25;0.75
66336;PMS1003;53139;45.576;5.304;2023-07-29T14:49:03;1.00;1.00;1.00
66336;PMS1003;53139;45.576;5.304;2023-07-29T14:52:03;1.50;0.00;0.00
66336;PMS1003;53139;45.576;5.304;2023-07-29T14:55:08;3.00;1.25;1.00
66336;PMS1003;53139;45.576;5.304;2023-07-29T14:58:12;0.00;0.00;0.00
66336;PMS1003;53139;45.576;5.304;2023-07-29T15:01:35;2.00;2.00;2.00
66336;PMS1003;53139;45.576;5.304;2023-07-29T15:04:39;2.25;1.00;1.00
66336;PMS1003;53139;45.576;5.304;2023-07-29T15:07:39;3.00;3.00;2.00
66336;PMS1003;53139;45.576;5.304;2023-07-29T15:10:40;2.00;2.00;2.00
66336;PMS1003;53139;45.576;5.304;2023-07-29T15:13:40;3.00;3.00;3.00
66336;PMS1003;53139;45.576;5.304;2023-07-29T15:16:40;3.00;3.00;2.50
66336;PMS1003;53139;45.576;5.304;2023-07-29T15:19:41;4.00;4.00;3.00
66336;PMS1003;53139;45.576;5.304;2023-07-29T15:22:42;4.00;2.50;2.00
66336;PMS1003;53139;45.576;5.304;2023-07-29T15:25:42;2.00;2.00;1.50
66336;PMS1003;53139;45.576;5.304;2023-07-29T15:28:43;4.00;4.00;3.00
66336;PMS1003;53139;45.576;5.304;2023-07-29T15:31:43;3.00;3.00;2.00
66336;PMS1003;53139;45.576;5.304;2023-07-29T15:34:43;2.75;2.75;2.25
66336;PMS1003;53139;45.576;5.304;2023-07-29T15:37:44;6.00;5.00;4.00
66336;PMS1003;53139;45.576;5.304;2023-07-29T15:40:46;5.25;3.25;3.25
66336;PMS1003;53139;45.576;5.304;2023-07-29T15:43:48;2.75;2.75;2.00
66336;PMS1003;53139;45.576;5.304;2023-07-29T15:46:49;5.75;4.00;3.50
66336;PMS1003;53139;45.576;5.304;2023-07-29T15:49:51;5.75;5.00;3.00
66336;PMS1003;53139;45.576;5.304;2023-07-29T15:52:52;3.00;3.00;2.75
66336;PMS1003;53139;45.576;5.304;2023-07-29T15:55:52;5.25;5.25;4.00
66336;PMS1003;53139;45.576;5.304;2023-07-29T15:58:56;5.00;4.00;4.00
66336;PMS1003;53139;45.576;5.304;2023-07-29T16:01:56;4.50;4.50;4.00
66336;PMS1003;53139;45.576;5.304;2023-07-29T16:04:57;4.00;4.00;3.00
66336;PMS1003;53139;45.576;5.304;2023-07-29T16:07:57;3.50;3.50;3.00
66336;PMS1003;53139;45.576;5.304;2023-07-29T16:10:58;3.25;3.25;3.00
66336;PMS1003;53139;45.576;5.304;2023-07-29T16:13:58;4.25;3.75;3.00
66336;PMS1003;53139;45.576;5.304;2023-07-29T16:16:59;4.00;4.00;4.00
66336;PMS1003;53139;45.576;5.304;2023-07-29T16:20:00;3.00;2.00;2.00
66336;PMS1003;53139;45.576;5.304;2023-07-29T16:23:03;3.00;3.00;2.75
66336;PMS1003;53139;45.576;5.304;2023-07-29T16:26:03;3.00;3.00;3.00
66336;PMS1003;53139;45.576;5.304;2023-07-29T16:29:04;3.00;3.00;3.00
66336;PMS1003;53139;45.576;5.304;2023-07-29T16:32:05;4.25;3.75;3.00
66336;PMS1003;53139;45.576;5.304;2023-07-29T16:35:06;4.00;2.00;2.00
66336;PMS1003;53139;45.576;5.304;2023-07-29T16:38:07;1.75;1.75;1.75
66336;PMS1003;53139;45.576;5.304;2023-07-29T16:41:07;4.25;2.25;1.25
66336;PMS1003;53139;45.576;5.304;2023-07-29T16:44:07;2.25;2.25;2.00
66336;PMS1003;53139;45.576;5.304;2023-07-29T16:47:08;3.50;3.50;3.00
66336;PMS1003;53139;45.576;5.304;2023-07-29T16:58:19;2.00;2.00;2.00
66336;PMS1003;53139;45.576;5.304;2023-07-29T17:01:52;50.75;40.25;25.50
66336;PMS1003;53139;45.576;5.304;2023-07-29T17:04:56;42.75;36.75;25.75
66336;PMS1003;53139;45.576;5.304;2023-07-29T17:08:06;4.00;3.00;2.00
66336;PMS1003;53139;45.576;5.304;2023-07-29T17:11:13;3.00;3.00;2.25
66336;PMS1003;53139;45.576;5.304;2023-07-29T17:14:13;24.25;22.25;17.75
66336;PMS1003;53139;45.576;5.304;2023-07-29T17:17:14;67.75;55.00;34.50
66336;PMS1003;53139;45.576;5.304;2023-07-29T17:20:14;14.00;11.00;9.75
66336;PMS1003;53139;45.576;5.304;2023-07-29T17:23:15;8.25;8.00;5.75
66336;PMS1003;53139;45.576;5.304;2023-07-29T17:26:15;40.50;34.75;26.50
66336;PMS1003;53139;45.576;5.304;2023-07-29T17:29:15;32.75;29.50;22.50
66336;PMS1003;53139;45.576;5.304;2023-07-29T17:32:16;33.00;31.25;24.50
66336;PMS1003;53139;45.576;5.304;2023-07-29T17:35:16;14.00;14.00;10.75
66336;PMS1003;53139;45.576;5.304;2023-07-29T17:38:19;5.00;5.00;4.25
66336;PMS1003;53139;45.576;5.304;2023-07-29T17:41:19;3.50;3.00;2.50
66336;PMS1003;53139;45.576;5.304;2023-07-29T17:44:19;2.75;2.00;2.00
66336;PMS1003;53139;45.576;5.304;2023-07-29T17:47:20;4.00;3.00;2.50
66336;PMS1003;53139;45.576;5.304;2023-07-29T17:50:20;4.00;2.00;2.00
66336;PMS1003;53139;45.576;5.304;2023-07-29T17:53:21;2.75;2.75;2.50
66336;PMS1003;53139;45.576;5.304;2023-07-29T17:56:22;3.00;2.75;2.25
66336;PMS1003;53139;45.576;5.304;2023-07-29T17:59:22;2.75;2.00;2.00
66336;PMS1003;53139;45.576;5.304;2023-07-29T18:02:23;3.50;2.00;1.25
66336;PMS1003;53139;45.576;5.304;2023-07-29T18:05:23;4.00;3.00;3.00
66336;PMS1003;53139;45.576;5.304;2023-07-29T18:08:23;2.00;2.00;2.00
66336;PMS1003;53139;45.576;5.304;2023-07-29T18:11:24;2.50;1.75;1.25
66336;PMS1003;53139;45.576;5.304;2023-07-29T18:14:24;2.00;2.00;2.00
66336;PMS1003;53139;45.576;5.304;2023-07-29T18:17:25;3.50;2.50;2.00
66336;PMS1003;53139;45.576;5.304;2023-07-29T18:20:25;2.00;2.00;1.50
66336;PMS1003;53139;45.576;5.304;2023-07-29T18:23:27;3.00;2.75;2.25
66336;PMS1003;53139;45.576;5.304;2023-07-29T18:26:27;2.75;2.75;2.00
66336;PMS1003;53139;45.576;5.304;2023-07-29T18:29:27;3.50;3.50;3.00
66336;PMS1003;53139;45.576;5.304;2023-07-29T18:32:28;2.00;2.00;1.00
66336;PMS1003;53139;45.576;5.304;2023-07-29T18:35:28;3.00;1.00;1.00
66336;PMS1003;53139;45.576;5.304;2023-07-29T18:38:29;2.00;2.00;1.00
66336;PMS1003;53139;45.576;5.304;2023-07-29T18:41:29;1.25;0.75;0.75